CFTIW KSAT-KABI
Flight info
| Callsign | CFTIW |
|---|---|
| Flight time | 1h 1m |
| Altitude | 8000 |
| Route | DCT |
| Aircraft | BE58/L-SDE3/1200 |
Departure
| Time | 2026-04-21 11:07 |
|---|---|
| Airport | San Antonio International Airport (KSAT) |
Arrival
| Time | 2026-04-21 12:09 |
|---|---|
| Airport | Abilene Regional Airport (KABI) |
| Time | Latitude | Longitude | Altitude | Speed | Heading |
|---|---|---|---|---|---|
| 2026-04-21 10:55 | 29.52729 | -98.46961 | 784 ft | 0 kts | 295° |
| 2026-04-21 10:58 | 29.52725 | -98.46951 | 794 ft | 2 kts | 295° |
| 2026-04-21 10:59 | 29.52718 | -98.46936 | 784 ft | 2 kts | 295° |
| 2026-04-21 10:59 | 29.52712 | -98.46920 | 780 ft | 2 kts | 295° |
| 2026-04-21 10:59 | 29.52707 | -98.46907 | 782 ft | 0 kts | 295° |
| 2026-04-21 11:00 | 29.52735 | -98.46912 | 784 ft | 9 kts | 1° |
| 2026-04-21 11:00 | 29.52809 | -98.46967 | 785 ft | 16 kts | 314° |
| 2026-04-21 11:00 | 29.52884 | -98.47065 | 788 ft | 14 kts | 310° |
| 2026-04-21 11:01 | 29.52951 | -98.47148 | 789 ft | 16 kts | 316° |
| 2026-04-21 11:01 | 29.53036 | -98.47250 | 791 ft | 16 kts | 311° |
| 2026-04-21 11:01 | 29.53098 | -98.47337 | 793 ft | 15 kts | 303° |
| 2026-04-21 11:02 | 29.53244 | -98.47561 | 794 ft | 22 kts | 311° |
| 2026-04-21 11:02 | 29.53352 | -98.47698 | 794 ft | 22 kts | 314° |
| 2026-04-21 11:02 | 29.53458 | -98.47762 | 796 ft | 14 kts | 345° |
| 2026-04-21 11:02 | 29.53535 | -98.47795 | 798 ft | 11 kts | 322° |
| 2026-04-21 11:03 | 29.53604 | -98.47882 | 799 ft | 17 kts | 312° |
| 2026-04-21 11:03 | 29.53691 | -98.47992 | 803 ft | 20 kts | 312° |
| 2026-04-21 11:03 | 29.53772 | -98.48098 | 807 ft | 15 kts | 311° |
| 2026-04-21 11:03 | 29.53857 | -98.48207 | 809 ft | 24 kts | 313° |
| 2026-04-21 11:04 | 29.53964 | -98.48343 | 812 ft | 20 kts | 312° |
| 2026-04-21 11:04 | 29.54050 | -98.48455 | 811 ft | 17 kts | 312° |
| 2026-04-21 11:04 | 29.54121 | -98.48548 | 812 ft | 14 kts | 314° |
| 2026-04-21 11:04 | 29.54180 | -98.48604 | 813 ft | 8 kts | 348° |
| 2026-04-21 11:05 | 29.54205 | -98.48603 | 813 ft | 0 kts | 14° |
| 2026-04-21 11:05 | 29.54211 | -98.48601 | 813 ft | 5 kts | 21° |
| 2026-04-21 11:06 | 29.54258 | -98.48542 | 813 ft | 10 kts | 93° |
| 2026-04-21 11:06 | 29.54224 | -98.48483 | 813 ft | 14 kts | 130° |
| 2026-04-21 11:06 | 29.54001 | -98.48198 | 811 ft | 83 kts | 131° |
| 2026-04-21 11:06 | 29.53481 | -98.47547 | 928 ft | 124 kts | 132° |
| 2026-04-21 11:07 | 29.52891 | -98.46817 | 1396 ft | 123 kts | 134° |
| 2026-04-21 11:07 | 29.52344 | -98.46135 | 1991 ft | 111 kts | 128° |
| 2026-04-21 11:07 | 29.52175 | -98.45259 | 2556 ft | 125 kts | 89° |
| 2026-04-21 11:07 | 29.52757 | -98.44427 | 3004 ft | 149 kts | 27° |
| 2026-04-21 11:08 | 29.53746 | -98.44326 | 3629 ft | 143 kts | 346° |
| 2026-04-21 11:08 | 29.54628 | -98.44823 | 4125 ft | 138 kts | 313° |
| 2026-04-21 11:08 | 29.55315 | -98.45539 | 4648 ft | 139 kts | 307° |
| 2026-04-21 11:08 | 29.55996 | -98.46341 | 5143 ft | 138 kts | 306° |
| 2026-04-21 11:09 | 29.56668 | -98.47102 | 5667 ft | 132 kts | 306° |
| 2026-04-21 11:09 | 29.57425 | -98.47707 | 6170 ft | 136 kts | 323° |
| 2026-04-21 11:09 | 29.58269 | -98.48215 | 6609 ft | 137 kts | 324° |
| 2026-04-21 11:09 | 29.59117 | -98.48698 | 7023 ft | 136 kts | 325° |
| 2026-04-21 11:10 | 29.59958 | -98.49193 | 7428 ft | 136 kts | 324° |
| 2026-04-21 11:10 | 29.60797 | -98.49687 | 7826 ft | 135 kts | 325° |
| 2026-04-21 11:10 | 29.61695 | -98.50172 | 8000 ft | 155 kts | 328° |
| 2026-04-21 11:10 | 29.62751 | -98.50707 | 8008 ft | 175 kts | 332° |
| 2026-04-21 11:11 | 29.63924 | -98.51211 | 8004 ft | 184 kts | 335° |
| 2026-04-21 11:11 | 29.65146 | -98.51708 | 8004 ft | 188 kts | 335° |
| 2026-04-21 11:11 | 29.66386 | -98.52215 | 8001 ft | 190 kts | 335° |
| 2026-04-21 11:11 | 29.67622 | -98.52719 | 7995 ft | 191 kts | 335° |
| 2026-04-21 11:12 | 29.68893 | -98.53240 | 7993 ft | 191 kts | 335° |
| 2026-04-21 11:12 | 29.70128 | -98.53748 | 7989 ft | 192 kts | 334° |
| 2026-04-21 11:12 | 29.71384 | -98.54262 | 7987 ft | 191 kts | 335° |
| 2026-04-21 11:12 | 29.72641 | -98.54777 | 7985 ft | 192 kts | 335° |
| 2026-04-21 11:13 | 29.73898 | -98.55292 | 7985 ft | 192 kts | 335° |
| 2026-04-21 11:13 | 29.75155 | -98.55809 | 7982 ft | 192 kts | 335° |
| 2026-04-21 11:13 | 29.76414 | -98.56324 | 7979 ft | 192 kts | 335° |
| 2026-04-21 11:13 | 29.77670 | -98.56840 | 7980 ft | 192 kts | 335° |
| 2026-04-21 11:14 | 29.78925 | -98.57355 | 7978 ft | 191 kts | 335° |
| 2026-04-21 11:14 | 29.80182 | -98.57872 | 7975 ft | 192 kts | 335° |
| 2026-04-21 11:14 | 29.81436 | -98.58386 | 7972 ft | 192 kts | 335° |
| 2026-04-21 11:14 | 29.82696 | -98.58904 | 7969 ft | 192 kts | 335° |
| 2026-04-21 11:15 | 29.83954 | -98.59421 | 7966 ft | 192 kts | 335° |
| 2026-04-21 11:15 | 29.85209 | -98.59937 | 7963 ft | 191 kts | 335° |
| 2026-04-21 11:15 | 29.86465 | -98.60453 | 7963 ft | 192 kts | 335° |
| 2026-04-21 11:15 | 29.87702 | -98.60962 | 7963 ft | 192 kts | 335° |
| 2026-04-21 11:16 | 29.88956 | -98.61478 | 7961 ft | 191 kts | 335° |
| 2026-04-21 11:16 | 29.90210 | -98.61995 | 7962 ft | 192 kts | 335° |
| 2026-04-21 11:16 | 29.91469 | -98.62513 | 7963 ft | 192 kts | 335° |
| 2026-04-21 11:16 | 29.92727 | -98.63031 | 7964 ft | 192 kts | 335° |
| 2026-04-21 11:17 | 29.93983 | -98.63548 | 7964 ft | 192 kts | 335° |
| 2026-04-21 11:17 | 29.95239 | -98.64066 | 7964 ft | 192 kts | 335° |
| 2026-04-21 11:17 | 29.96496 | -98.64582 | 7967 ft | 192 kts | 335° |
| 2026-04-21 11:17 | 29.97755 | -98.65102 | 7966 ft | 192 kts | 335° |
| 2026-04-21 11:18 | 29.99017 | -98.65623 | 7966 ft | 193 kts | 335° |
| 2026-04-21 11:18 | 30.00285 | -98.66145 | 7968 ft | 193 kts | 335° |
| 2026-04-21 11:18 | 30.01548 | -98.66666 | 7968 ft | 193 kts | 334° |
| 2026-04-21 11:18 | 30.02816 | -98.67190 | 7967 ft | 193 kts | 334° |
| 2026-04-21 11:19 | 30.04082 | -98.67712 | 7966 ft | 193 kts | 334° |
| 2026-04-21 11:19 | 30.05350 | -98.68236 | 7968 ft | 193 kts | 334° |
| 2026-04-21 11:19 | 30.06614 | -98.68757 | 7968 ft | 193 kts | 334° |
| 2026-04-21 11:19 | 30.07878 | -98.69279 | 7972 ft | 193 kts | 334° |
| 2026-04-21 11:20 | 30.09142 | -98.69801 | 7970 ft | 193 kts | 334° |
| 2026-04-21 11:20 | 30.10403 | -98.70323 | 7968 ft | 192 kts | 334° |
| 2026-04-21 11:20 | 30.11663 | -98.70844 | 7970 ft | 192 kts | 334° |
| 2026-04-21 11:20 | 30.12923 | -98.71365 | 7967 ft | 193 kts | 334° |
| 2026-04-21 11:21 | 30.14187 | -98.71888 | 7967 ft | 193 kts | 334° |
| 2026-04-21 11:21 | 30.15435 | -98.72404 | 7967 ft | 193 kts | 334° |
| 2026-04-21 11:21 | 30.16699 | -98.72927 | 7968 ft | 193 kts | 334° |
| 2026-04-21 11:21 | 30.17961 | -98.73449 | 7967 ft | 193 kts | 334° |
| 2026-04-21 11:22 | 30.19226 | -98.73973 | 7968 ft | 193 kts | 334° |
| 2026-04-21 11:22 | 30.20489 | -98.74497 | 7968 ft | 192 kts | 334° |
| 2026-04-21 11:22 | 30.21747 | -98.75018 | 7966 ft | 192 kts | 334° |
| 2026-04-21 11:22 | 30.23008 | -98.75540 | 7968 ft | 192 kts | 334° |
| 2026-04-21 11:23 | 30.24266 | -98.76062 | 7968 ft | 192 kts | 334° |
| 2026-04-21 11:23 | 30.25523 | -98.76583 | 7971 ft | 192 kts | 334° |
| 2026-04-21 11:23 | 30.26778 | -98.77104 | 7968 ft | 192 kts | 334° |
| 2026-04-21 11:23 | 30.28036 | -98.77625 | 7969 ft | 192 kts | 334° |
| 2026-04-21 11:24 | 30.29293 | -98.78147 | 7969 ft | 192 kts | 334° |
| 2026-04-21 11:24 | 30.30549 | -98.78669 | 7968 ft | 192 kts | 334° |
| 2026-04-21 11:24 | 30.31807 | -98.79191 | 7972 ft | 192 kts | 334° |
| 2026-04-21 11:24 | 30.33064 | -98.79713 | 7969 ft | 192 kts | 334° |
| 2026-04-21 11:25 | 30.34321 | -98.80235 | 7971 ft | 192 kts | 334° |
| 2026-04-21 11:25 | 30.35576 | -98.80756 | 7968 ft | 192 kts | 334° |
| 2026-04-21 11:25 | 30.36834 | -98.81279 | 7968 ft | 191 kts | 334° |
| 2026-04-21 11:25 | 30.38085 | -98.81799 | 7969 ft | 191 kts | 334° |
| 2026-04-21 11:26 | 30.39337 | -98.82321 | 7966 ft | 191 kts | 334° |
| 2026-04-21 11:26 | 30.40586 | -98.82841 | 7967 ft | 191 kts | 334° |
| 2026-04-21 11:26 | 30.41841 | -98.83362 | 7965 ft | 191 kts | 334° |
| 2026-04-21 11:26 | 30.43099 | -98.83885 | 7968 ft | 192 kts | 334° |
| 2026-04-21 11:27 | 30.44355 | -98.84409 | 7970 ft | 192 kts | 334° |
| 2026-04-21 11:27 | 30.45611 | -98.84932 | 7969 ft | 192 kts | 334° |
| 2026-04-21 11:27 | 30.46848 | -98.85446 | 7971 ft | 190 kts | 334° |
| 2026-04-21 11:27 | 30.48090 | -98.85965 | 7972 ft | 190 kts | 334° |
| 2026-04-21 11:28 | 30.49333 | -98.86483 | 7975 ft | 189 kts | 335° |
| 2026-04-21 11:28 | 30.50575 | -98.87001 | 7979 ft | 190 kts | 334° |
| 2026-04-21 11:28 | 30.51815 | -98.87518 | 7982 ft | 190 kts | 334° |
| 2026-04-21 11:28 | 30.53062 | -98.88039 | 7981 ft | 191 kts | 334° |
| 2026-04-21 11:29 | 30.54317 | -98.88562 | 7984 ft | 191 kts | 334° |
| 2026-04-21 11:29 | 30.55589 | -98.89093 | 7988 ft | 192 kts | 334° |
| 2026-04-21 11:29 | 30.56830 | -98.89610 | 7993 ft | 192 kts | 334° |
| 2026-04-21 11:29 | 30.58089 | -98.90136 | 7992 ft | 192 kts | 334° |
| 2026-04-21 11:30 | 30.59348 | -98.90662 | 7992 ft | 192 kts | 334° |
| 2026-04-21 11:30 | 30.60606 | -98.91188 | 7996 ft | 192 kts | 334° |
| 2026-04-21 11:30 | 30.61863 | -98.91713 | 7997 ft | 192 kts | 334° |
| 2026-04-21 11:30 | 30.63120 | -98.92238 | 7999 ft | 192 kts | 334° |
| 2026-04-21 11:31 | 30.64375 | -98.92763 | 7999 ft | 192 kts | 334° |
| 2026-04-21 11:31 | 30.65628 | -98.93288 | 7996 ft | 192 kts | 334° |
| 2026-04-21 11:31 | 30.66884 | -98.93813 | 7999 ft | 192 kts | 334° |
| 2026-04-21 11:31 | 30.68138 | -98.94337 | 7998 ft | 191 kts | 334° |
| 2026-04-21 11:32 | 30.69389 | -98.94862 | 7999 ft | 191 kts | 334° |
| 2026-04-21 11:32 | 30.70643 | -98.95387 | 8002 ft | 192 kts | 334° |
| 2026-04-21 11:32 | 30.71898 | -98.95912 | 7999 ft | 192 kts | 334° |
| 2026-04-21 11:32 | 30.73153 | -98.96438 | 8002 ft | 192 kts | 334° |
| 2026-04-21 11:33 | 30.74405 | -98.96963 | 7998 ft | 191 kts | 334° |
| 2026-04-21 11:33 | 30.75656 | -98.97488 | 8000 ft | 191 kts | 334° |
| 2026-04-21 11:33 | 30.76911 | -98.98014 | 7998 ft | 192 kts | 334° |
| 2026-04-21 11:33 | 30.78166 | -98.98540 | 7998 ft | 191 kts | 334° |
| 2026-04-21 11:34 | 30.79417 | -98.99065 | 7998 ft | 191 kts | 334° |
| 2026-04-21 11:34 | 30.80670 | -98.99591 | 7993 ft | 192 kts | 334° |
| 2026-04-21 11:34 | 30.81924 | -99.00118 | 7992 ft | 192 kts | 334° |
| 2026-04-21 11:34 | 30.83179 | -99.00644 | 7990 ft | 192 kts | 334° |
| 2026-04-21 11:35 | 30.84433 | -99.01170 | 7991 ft | 191 kts | 334° |
| 2026-04-21 11:35 | 30.85685 | -99.01697 | 7987 ft | 191 kts | 334° |
| 2026-04-21 11:35 | 30.86931 | -99.02221 | 7984 ft | 191 kts | 334° |
| 2026-04-21 11:35 | 30.88180 | -99.02746 | 7982 ft | 191 kts | 334° |
| 2026-04-21 11:36 | 30.89006 | -99.03093 | 7986 ft | 191 kts | 334° |
| 2026-04-21 11:36 | 30.90259 | -99.03620 | 7980 ft | 191 kts | 334° |
| 2026-04-21 11:36 | 30.91508 | -99.04145 | 7983 ft | 191 kts | 334° |
| 2026-04-21 11:36 | 30.92755 | -99.04670 | 7979 ft | 190 kts | 334° |
| 2026-04-21 11:37 | 30.93998 | -99.05192 | 7981 ft | 189 kts | 334° |
| 2026-04-21 11:37 | 30.95238 | -99.05716 | 7985 ft | 190 kts | 334° |
| 2026-04-21 11:37 | 30.96486 | -99.06242 | 7985 ft | 191 kts | 334° |
| 2026-04-21 11:37 | 30.97735 | -99.06768 | 7989 ft | 191 kts | 334° |
| 2026-04-21 11:38 | 30.98985 | -99.07294 | 7990 ft | 191 kts | 334° |
| 2026-04-21 11:38 | 31.00234 | -99.07821 | 7990 ft | 191 kts | 334° |
| 2026-04-21 11:38 | 31.01481 | -99.08346 | 7992 ft | 191 kts | 334° |
| 2026-04-21 11:38 | 31.02724 | -99.08871 | 7994 ft | 190 kts | 334° |
| 2026-04-21 11:39 | 31.03967 | -99.09395 | 7989 ft | 190 kts | 334° |
| 2026-04-21 11:39 | 31.05212 | -99.09920 | 7996 ft | 191 kts | 334° |
| 2026-04-21 11:39 | 31.06459 | -99.10447 | 7998 ft | 191 kts | 334° |
| 2026-04-21 11:39 | 31.07704 | -99.10973 | 7998 ft | 190 kts | 334° |
| 2026-04-21 11:40 | 31.08952 | -99.11499 | 8003 ft | 190 kts | 334° |
| 2026-04-21 11:40 | 31.10200 | -99.12027 | 8003 ft | 190 kts | 334° |
| 2026-04-21 11:40 | 31.11431 | -99.12547 | 8005 ft | 191 kts | 334° |
| 2026-04-21 11:40 | 31.12679 | -99.13075 | 8010 ft | 191 kts | 334° |
| 2026-04-21 11:41 | 31.13946 | -99.13610 | 8008 ft | 191 kts | 334° |
| 2026-04-21 11:41 | 31.15177 | -99.14131 | 8003 ft | 191 kts | 334° |
| 2026-04-21 11:41 | 31.16424 | -99.14659 | 8013 ft | 191 kts | 334° |
| 2026-04-21 11:41 | 31.17674 | -99.15187 | 8013 ft | 191 kts | 334° |
| 2026-04-21 11:42 | 31.18921 | -99.15713 | 8018 ft | 190 kts | 334° |
| 2026-04-21 11:42 | 31.20167 | -99.16242 | 8007 ft | 191 kts | 334° |
| 2026-04-21 11:42 | 31.21414 | -99.16772 | 8010 ft | 191 kts | 334° |
| 2026-04-21 11:42 | 31.22666 | -99.17302 | 8003 ft | 192 kts | 334° |
| 2026-04-21 11:43 | 31.23919 | -99.17832 | 8007 ft | 192 kts | 334° |
| 2026-04-21 11:43 | 31.25171 | -99.18363 | 8005 ft | 191 kts | 334° |
| 2026-04-21 11:43 | 31.26421 | -99.18893 | 8003 ft | 191 kts | 334° |
| 2026-04-21 11:43 | 31.27672 | -99.19424 | 8007 ft | 191 kts | 334° |
| 2026-04-21 11:44 | 31.28924 | -99.19954 | 8001 ft | 191 kts | 334° |
| 2026-04-21 11:44 | 31.30173 | -99.20484 | 8002 ft | 191 kts | 334° |
| 2026-04-21 11:44 | 31.31421 | -99.21014 | 8002 ft | 191 kts | 334° |
| 2026-04-21 11:44 | 31.32668 | -99.21544 | 8002 ft | 191 kts | 334° |
| 2026-04-21 11:45 | 31.33914 | -99.22072 | 8001 ft | 190 kts | 334° |
| 2026-04-21 11:45 | 31.35156 | -99.22600 | 7999 ft | 190 kts | 334° |
| 2026-04-21 11:45 | 31.36380 | -99.23121 | 7995 ft | 189 kts | 334° |
| 2026-04-21 11:45 | 31.37617 | -99.23647 | 8000 ft | 189 kts | 334° |
| 2026-04-21 11:46 | 31.38857 | -99.24174 | 7998 ft | 190 kts | 334° |
| 2026-04-21 11:46 | 31.40101 | -99.24703 | 7991 ft | 190 kts | 334° |
| 2026-04-21 11:46 | 31.41339 | -99.25230 | 7999 ft | 189 kts | 334° |
| 2026-04-21 11:46 | 31.42578 | -99.25757 | 7993 ft | 190 kts | 334° |
| 2026-04-21 11:47 | 31.43818 | -99.26285 | 7995 ft | 189 kts | 334° |
| 2026-04-21 11:47 | 31.45055 | -99.26812 | 7991 ft | 189 kts | 334° |
| 2026-04-21 11:47 | 31.46290 | -99.27337 | 7996 ft | 188 kts | 334° |
| 2026-04-21 11:47 | 31.47525 | -99.27863 | 7990 ft | 188 kts | 334° |
| 2026-04-21 11:48 | 31.48756 | -99.28388 | 7991 ft | 187 kts | 334° |
| 2026-04-21 11:48 | 31.49988 | -99.28913 | 7990 ft | 188 kts | 334° |
| 2026-04-21 11:48 | 31.51216 | -99.29437 | 7986 ft | 188 kts | 334° |
| 2026-04-21 11:48 | 31.52447 | -99.29962 | 7988 ft | 188 kts | 334° |
| 2026-04-21 11:49 | 31.53672 | -99.30485 | 7989 ft | 188 kts | 334° |
| 2026-04-21 11:49 | 31.54884 | -99.31002 | 7987 ft | 187 kts | 334° |
| 2026-04-21 11:49 | 31.56111 | -99.31526 | 7992 ft | 187 kts | 334° |
| 2026-04-21 11:49 | 31.57335 | -99.32048 | 8000 ft | 187 kts | 334° |
| 2026-04-21 11:50 | 31.58557 | -99.32571 | 8003 ft | 187 kts | 334° |
| 2026-04-21 11:50 | 31.59782 | -99.33094 | 8002 ft | 187 kts | 334° |
| 2026-04-21 11:50 | 31.61004 | -99.33616 | 8008 ft | 187 kts | 334° |
| 2026-04-21 11:50 | 31.62227 | -99.34139 | 8007 ft | 187 kts | 334° |
| 2026-04-21 11:51 | 31.63452 | -99.34662 | 8009 ft | 187 kts | 334° |
| 2026-04-21 11:51 | 31.64674 | -99.35185 | 8014 ft | 187 kts | 334° |
| 2026-04-21 11:51 | 31.65896 | -99.35708 | 8019 ft | 187 kts | 334° |
| 2026-04-21 11:51 | 31.67116 | -99.36230 | 8018 ft | 187 kts | 334° |
| 2026-04-21 11:52 | 31.68320 | -99.36746 | 8019 ft | 187 kts | 334° |
| 2026-04-21 11:52 | 31.69557 | -99.37275 | 8021 ft | 186 kts | 334° |
| 2026-04-21 11:52 | 31.70758 | -99.37789 | 8027 ft | 186 kts | 334° |
| 2026-04-21 11:52 | 31.71976 | -99.38311 | 8025 ft | 186 kts | 334° |
| 2026-04-21 11:53 | 31.73194 | -99.38833 | 8033 ft | 186 kts | 334° |
| 2026-04-21 11:53 | 31.74409 | -99.39354 | 8031 ft | 186 kts | 334° |
| 2026-04-21 11:53 | 31.75625 | -99.39876 | 8036 ft | 186 kts | 334° |
| 2026-04-21 11:53 | 31.76817 | -99.40456 | 8036 ft | 183 kts | 327° |
| 2026-04-21 11:54 | 31.77945 | -99.41149 | 8034 ft | 183 kts | 326° |
| 2026-04-21 11:54 | 31.79073 | -99.41851 | 8032 ft | 183 kts | 326° |
| 2026-04-21 11:54 | 31.80191 | -99.42546 | 7998 ft | 182 kts | 326° |
| 2026-04-21 11:54 | 31.81316 | -99.43245 | 7894 ft | 183 kts | 326° |
| 2026-04-21 11:55 | 31.82437 | -99.43939 | 7767 ft | 182 kts | 326° |
| 2026-04-21 11:55 | 31.83558 | -99.44627 | 7643 ft | 183 kts | 326° |
| 2026-04-21 11:55 | 31.84685 | -99.45319 | 7532 ft | 182 kts | 326° |
| 2026-04-21 11:55 | 31.85807 | -99.46008 | 7430 ft | 181 kts | 326° |
| 2026-04-21 11:56 | 31.86923 | -99.46693 | 7237 ft | 182 kts | 326° |
| 2026-04-21 11:56 | 31.88046 | -99.47379 | 7046 ft | 182 kts | 326° |
| 2026-04-21 11:56 | 31.89168 | -99.48061 | 6862 ft | 182 kts | 326° |
| 2026-04-21 11:56 | 31.90290 | -99.48738 | 6695 ft | 181 kts | 326° |
| 2026-04-21 11:57 | 31.91413 | -99.49416 | 6518 ft | 181 kts | 326° |
| 2026-04-21 11:57 | 31.92534 | -99.50092 | 6353 ft | 181 kts | 326° |
| 2026-04-21 11:57 | 31.93656 | -99.50762 | 6187 ft | 181 kts | 326° |
| 2026-04-21 11:57 | 31.94774 | -99.51429 | 6036 ft | 180 kts | 326° |
| 2026-04-21 11:58 | 31.95892 | -99.52092 | 5873 ft | 180 kts | 326° |
| 2026-04-21 11:58 | 31.97008 | -99.52754 | 5716 ft | 179 kts | 326° |
| 2026-04-21 11:58 | 31.98121 | -99.53415 | 5562 ft | 179 kts | 326° |
| 2026-04-21 11:58 | 31.99221 | -99.54057 | 5420 ft | 179 kts | 326° |
| 2026-04-21 11:59 | 32.00345 | -99.54703 | 5263 ft | 179 kts | 326° |
| 2026-04-21 11:59 | 32.01468 | -99.55343 | 5121 ft | 180 kts | 327° |
| 2026-04-21 11:59 | 32.02587 | -99.55987 | 4994 ft | 178 kts | 326° |
| 2026-04-21 11:59 | 32.03698 | -99.56622 | 4858 ft | 178 kts | 326° |
| 2026-04-21 12:00 | 32.04815 | -99.57259 | 4704 ft | 179 kts | 327° |
| 2026-04-21 12:00 | 32.05932 | -99.57904 | 4542 ft | 178 kts | 326° |
| 2026-04-21 12:00 | 32.07027 | -99.58571 | 4396 ft | 177 kts | 325° |
| 2026-04-21 12:00 | 32.08109 | -99.59275 | 4252 ft | 179 kts | 324° |
| 2026-04-21 12:01 | 32.09194 | -99.59995 | 4120 ft | 178 kts | 325° |
| 2026-04-21 12:01 | 32.10258 | -99.60720 | 4006 ft | 176 kts | 324° |
| 2026-04-21 12:01 | 32.11322 | -99.61452 | 3873 ft | 177 kts | 324° |
| 2026-04-21 12:01 | 32.12377 | -99.62190 | 3783 ft | 176 kts | 324° |
| 2026-04-21 12:02 | 32.13426 | -99.62931 | 3668 ft | 175 kts | 324° |
| 2026-04-21 12:02 | 32.15528 | -99.64439 | 3396 ft | 176 kts | 324° |
| 2026-04-21 12:02 | 32.16564 | -99.65196 | 3256 ft | 173 kts | 324° |
| 2026-04-21 12:03 | 32.17581 | -99.65957 | 2995 ft | 171 kts | 324° |
| 2026-04-21 12:03 | 32.18530 | -99.66682 | 2981 ft | 155 kts | 324° |
| 2026-04-21 12:03 | 32.19454 | -99.67222 | 2997 ft | 146 kts | 345° |
| 2026-04-21 12:03 | 32.20438 | -99.67399 | 2995 ft | 141 kts | 356° |
| 2026-04-21 12:04 | 32.21414 | -99.67390 | 2998 ft | 140 kts | 359° |
| 2026-04-21 12:04 | 32.22417 | -99.67412 | 3010 ft | 150 kts | 0° |
| 2026-04-21 12:04 | 32.23509 | -99.67401 | 3020 ft | 163 kts | 0° |
| 2026-04-21 12:04 | 32.24660 | -99.67415 | 3025 ft | 167 kts | 359° |
| 2026-04-21 12:05 | 32.25815 | -99.67412 | 3018 ft | 165 kts | 1° |
| 2026-04-21 12:05 | 32.26956 | -99.67422 | 3023 ft | 163 kts | 359° |
| 2026-04-21 12:05 | 32.28074 | -99.67425 | 3018 ft | 158 kts | 0° |
| 2026-04-21 12:05 | 32.29168 | -99.67427 | 3019 ft | 156 kts | 0° |
| 2026-04-21 12:06 | 32.30240 | -99.67431 | 3008 ft | 153 kts | 360° |
| 2026-04-21 12:06 | 32.31294 | -99.67435 | 3010 ft | 150 kts | 360° |
| 2026-04-21 12:06 | 32.32327 | -99.67440 | 3013 ft | 148 kts | 360° |
| 2026-04-21 12:06 | 32.33301 | -99.67443 | 2945 ft | 132 kts | 360° |
| 2026-04-21 12:07 | 32.34165 | -99.67453 | 2781 ft | 112 kts | 0° |
| 2026-04-21 12:07 | 32.34890 | -99.67463 | 2634 ft | 101 kts | 1° |
| 2026-04-21 12:07 | 32.35606 | -99.67459 | 2489 ft | 103 kts | 0° |
| 2026-04-21 12:07 | 32.36314 | -99.67465 | 2345 ft | 101 kts | 1° |
| 2026-04-21 12:08 | 32.37011 | -99.67463 | 2206 ft | 97 kts | 2° |
| 2026-04-21 12:08 | 32.37679 | -99.67474 | 2072 ft | 95 kts | 2° |
| 2026-04-21 12:08 | 32.38346 | -99.67474 | 1909 ft | 94 kts | 5° |
| 2026-04-21 12:08 | 32.38979 | -99.67474 | 1797 ft | 90 kts | 2° |
| 2026-04-21 12:09 | 32.39501 | -99.67471 | 1788 ft | 44 kts | 358° |
| 2026-04-21 12:09 | 32.39698 | -99.67478 | 1787 ft | 12 kts | 358° |
| 2026-04-21 12:09 | 32.39751 | -99.67500 | 1786 ft | 9 kts | 284° |
| 2026-04-21 12:09 | 32.39754 | -99.67602 | 1784 ft | 11 kts | 272° |
| 2026-04-21 12:10 | 32.39822 | -99.67637 | 1784 ft | 15 kts | 0° |
| 2026-04-21 12:10 | 32.39964 | -99.67637 | 1784 ft | 22 kts | 0° |
| 2026-04-21 12:10 | 32.40109 | -99.67637 | 1782 ft | 24 kts | 0° |
| 2026-04-21 12:10 | 32.40287 | -99.67639 | 1786 ft | 25 kts | 0° |
| 2026-04-21 12:11 | 32.40448 | -99.67639 | 1789 ft | 24 kts | 359° |
| 2026-04-21 12:11 | 32.40621 | -99.67641 | 1793 ft | 23 kts | 359° |
| 2026-04-21 12:11 | 32.40764 | -99.67641 | 1799 ft | 18 kts | 358° |
| 2026-04-21 12:11 | 32.40890 | -99.67642 | 1799 ft | 18 kts | 358° |
| 2026-04-21 12:12 | 32.40979 | -99.67687 | 1797 ft | 16 kts | 276° |
| 2026-04-21 12:12 | 32.40980 | -99.67829 | 1799 ft | 17 kts | 271° |
| 2026-04-21 12:12 | 32.41037 | -99.67913 | 1797 ft | 11 kts | 309° |
| 2026-04-21 12:12 | 32.41104 | -99.67938 | 1796 ft | 6 kts | 328° |
| 2026-04-21 12:13 | 32.41113 | -99.67956 | 1796 ft | 1 kts | 274° |
| 2026-04-21 12:13 | 32.41113 | -99.67957 | 1796 ft | 0 kts | 270° |